sensor_id;sensor_type;location;lat;lon;timestamp;P1;durP1;ratioP1;P2;durP2;ratioP2
44832;SDS011;30569;51.252;9.830;2023-04-03T00:00:29;5.93;;;2.17;;
44832;SDS011;30569;51.252;9.830;2023-04-03T00:02:55;4.80;;;2.23;;
44832;SDS011;30569;51.252;9.830;2023-04-03T00:05:21;4.30;;;1.70;;
44832;SDS011;30569;51.252;9.830;2023-04-03T00:07:46;6.50;;;2.67;;
44832;SDS011;30569;51.252;9.830;2023-04-03T00:10:12;6.00;;;2.17;;
44832;SDS011;30569;51.252;9.830;2023-04-03T00:12:38;5.60;;;2.07;;
44832;SDS011;30569;51.252;9.830;2023-04-03T00:15:04;4.80;;;1.90;;
44832;SDS011;30569;51.252;9.830;2023-04-03T00:17:30;5.67;;;2.00;;
44832;SDS011;30569;51.252;9.830;2023-04-03T00:19:56;7.27;;;2.23;;
44832;SDS011;30569;51.252;9.830;2023-04-03T00:22:21;6.37;;;2.20;;
44832;SDS011;30569;51.252;9.830;2023-04-03T00:24:47;6.80;;;2.10;;
44832;SDS011;30569;51.252;9.830;2023-04-03T00:27:12;5.10;;;2.03;;
44832;SDS011;30569;51.252;9.830;2023-04-03T00:29:38;4.87;;;2.00;;
44832;SDS011;30569;51.252;9.830;2023-04-03T00:32:04;6.50;;;1.93;;
44832;SDS011;30569;51.252;9.830;2023-04-03T00:34:29;5.70;;;1.90;;
44832;SDS011;30569;51.252;9.830;2023-04-03T00:36:55;4.77;;;2.10;;
44832;SDS011;30569;51.252;9.830;2023-04-03T00:39:22;5.47;;;2.10;;
44832;SDS011;30569;51.252;9.830;2023-04-03T00:41:47;5.53;;;1.87;;
44832;SDS011;30569;51.252;9.830;2023-04-03T00:47:11;6.13;;;1.83;;
44832;SDS011;30569;51.252;9.830;2023-04-03T00:49:40;7.10;;;1.80;;
44832;SDS011;30569;51.252;9.830;2023-04-03T00:52:09;5.23;;;1.87;;
44832;SDS011;30569;51.252;9.830;2023-04-03T00:54:40;6.63;;;1.90;;
44832;SDS011;30569;51.252;9.830;2023-04-03T00:57:07;5.37;;;1.90;;
44832;SDS011;30569;51.252;9.830;2023-04-03T00:59:34;7.13;;;2.20;;
44832;SDS011;30569;51.252;9.830;2023-04-03T01:02:05;6.30;;;2.20;;
44832;SDS011;30569;51.252;9.830;2023-04-03T01:04:32;5.90;;;2.30;;
44832;SDS011;30569;51.252;9.830;2023-04-03T01:07:19;6.47;;;1.90;;
44832;SDS011;30569;51.252;9.830;2023-04-03T01:09:56;4.67;;;2.07;;
44832;SDS011;30569;51.252;9.830;2023-04-03T01:12:24;5.23;;;2.00;;
44832;SDS011;30569;51.252;9.830;2023-04-03T01:14:53;7.27;;;2.33;;
44832;SDS011;30569;51.252;9.830;2023-04-03T01:17:27;4.47;;;2.10;;
44832;SDS011;30569;51.252;9.830;2023-04-03T01:20:40;4.63;;;2.23;;
44832;SDS011;30569;51.252;9.830;2023-04-03T01:22:52;7.13;;;2.63;;
44832;SDS011;30569;51.252;9.830;2023-04-03T01:25:34;9.30;;;2.93;;
44832;SDS011;30569;51.252;9.830;2023-04-03T01:28:01;4.03;;;1.97;;
44832;SDS011;30569;51.252;9.830;2023-04-03T01:30:31;6.10;;;2.27;;
44832;SDS011;30569;51.252;9.830;2023-04-03T01:32:59;5.60;;;2.30;;
44832;SDS011;30569;51.252;9.830;2023-04-03T01:35:25;5.73;;;2.50;;
44832;SDS011;30569;51.252;9.830;2023-04-03T01:37:50;5.13;;;2.13;;
44832;SDS011;30569;51.252;9.830;2023-04-03T01:40:16;5.13;;;2.30;;
44832;SDS011;30569;51.252;9.830;2023-04-03T01:42:42;4.73;;;2.50;;
44832;SDS011;30569;51.252;9.830;2023-04-03T01:45:07;6.50;;;2.43;;
44832;SDS011;30569;51.252;9.830;2023-04-03T01:47:33;4.33;;;2.10;;
44832;SDS011;30569;51.252;9.830;2023-04-03T01:49:59;4.70;;;2.20;;
44832;SDS011;30569;51.252;9.830;2023-04-03T01:52:24;5.73;;;2.20;;
44832;SDS011;30569;51.252;9.830;2023-04-03T01:54:50;7.43;;;2.47;;
44832;SDS011;30569;51.252;9.830;2023-04-03T01:57:16;6.87;;;2.30;;
44832;SDS011;30569;51.252;9.830;2023-04-03T01:59:41;8.40;;;2.20;;
44832;SDS011;30569;51.252;9.830;2023-04-03T02:02:07;5.43;;;2.47;;
44832;SDS011;30569;51.252;9.830;2023-04-03T02:04:33;6.00;;;2.33;;
44832;SDS011;30569;51.252;9.830;2023-04-03T02:06:59;7.17;;;2.43;;
44832;SDS011;30569;51.252;9.830;2023-04-03T02:09:25;9.43;;;2.67;;
44832;SDS011;30569;51.252;9.830;2023-04-03T02:11:51;5.63;;;2.30;;
44832;SDS011;30569;51.252;9.830;2023-04-03T02:14:17;7.57;;;2.60;;
44832;SDS011;30569;51.252;9.830;2023-04-03T02:16:43;11.10;;;5.10;;
44832;SDS011;30569;51.252;9.830;2023-04-03T02:19:09;19.47;;;8.70;;
44832;SDS011;30569;51.252;9.830;2023-04-03T02:21:34;10.03;;;2.70;;
44832;SDS011;30569;51.252;9.830;2023-04-03T02:24:00;5.57;;;2.50;;
44832;SDS011;30569;51.252;9.830;2023-04-03T02:26:26;6.73;;;2.30;;
44832;SDS011;30569;51.252;9.830;2023-04-03T02:28:52;7.40;;;2.87;;
44832;SDS011;30569;51.252;9.830;2023-04-03T02:31:17;7.63;;;2.20;;
44832;SDS011;30569;51.252;9.830;2023-04-03T02:33:43;10.87;;;2.90;;
44832;SDS011;30569;51.252;9.830;2023-04-03T02:36:09;5.80;;;2.37;;
44832;SDS011;30569;51.252;9.830;2023-04-03T02:38:34;5.40;;;2.40;;
44832;SDS011;30569;51.252;9.830;2023-04-03T02:41:01;8.53;;;3.03;;
44832;SDS011;30569;51.252;9.830;2023-04-03T02:43:28;11.67;;;2.40;;
44832;SDS011;30569;51.252;9.830;2023-04-03T02:45:53;8.57;;;2.83;;
44832;SDS011;30569;51.252;9.830;2023-04-03T02:48:19;7.33;;;2.00;;
44832;SDS011;30569;51.252;9.830;2023-04-03T02:50:45;6.43;;;2.43;;
44832;SDS011;30569;51.252;9.830;2023-04-03T02:53:11;7.10;;;2.30;;
44832;SDS011;30569;51.252;9.830;2023-04-03T02:55:36;6.57;;;2.37;;
44832;SDS011;30569;51.252;9.830;2023-04-03T02:58:02;8.33;;;2.33;;
44832;SDS011;30569;51.252;9.830;2023-04-03T03:00:28;6.20;;;2.23;;
44832;SDS011;30569;51.252;9.830;2023-04-03T03:02:54;8.70;;;2.33;;
44832;SDS011;30569;51.252;9.830;2023-04-03T03:05:20;4.77;;;2.30;;
44832;SDS011;30569;51.252;9.830;2023-04-03T03:07:46;7.57;;;2.20;;
44832;SDS011;30569;51.252;9.830;2023-04-03T03:10:12;8.40;;;3.20;;
44832;SDS011;30569;51.252;9.830;2023-04-03T03:12:37;5.37;;;2.30;;
44832;SDS011;30569;51.252;9.830;2023-04-03T03:15:03;5.17;;;2.40;;
44832;SDS011;30569;51.252;9.830;2023-04-03T03:17:29;6.50;;;2.40;;
44832;SDS011;30569;51.252;9.830;2023-04-03T03:19:55;4.53;;;2.10;;
44832;SDS011;30569;51.252;9.830;2023-04-03T03:22:20;9.77;;;2.30;;
44832;SDS011;30569;51.252;9.830;2023-04-03T03:24:46;6.30;;;2.33;;
44832;SDS011;30569;51.252;9.830;2023-04-03T03:27:11;8.00;;;2.80;;
44832;SDS011;30569;51.252;9.830;2023-04-03T03:29:37;7.67;;;2.20;;
44832;SDS011;30569;51.252;9.830;2023-04-03T03:32:03;6.30;;;2.67;;
44832;SDS011;30569;51.252;9.830;2023-04-03T03:34:28;7.60;;;2.40;;
44832;SDS011;30569;51.252;9.830;2023-04-03T03:36:54;4.40;;;2.07;;
44832;SDS011;30569;51.252;9.830;2023-04-03T03:39:20;6.37;;;2.40;;
44832;SDS011;30569;51.252;9.830;2023-04-03T03:41:46;8.57;;;2.33;;
44832;SDS011;30569;51.252;9.830;2023-04-03T03:44:12;12.73;;;3.00;;
44832;SDS011;30569;51.252;9.830;2023-04-03T03:46:37;10.67;;;2.53;;
44832;SDS011;30569;51.252;9.830;2023-04-03T03:49:03;11.53;;;2.57;;
44832;SDS011;30569;51.252;9.830;2023-04-03T03:51:28;8.57;;;2.60;;
44832;SDS011;30569;51.252;9.830;2023-04-03T03:53:54;10.33;;;3.20;;
44832;SDS011;30569;51.252;9.830;2023-04-03T03:56:21;5.83;;;2.87;;
44832;SDS011;30569;51.252;9.830;2023-04-03T03:58:46;9.20;;;3.03;;
44832;SDS011;30569;51.252;9.830;2023-04-03T04:01:12;9.53;;;2.33;;
44832;SDS011;30569;51.252;9.830;2023-04-03T04:03:38;9.10;;;2.93;;
44832;SDS011;30569;51.252;9.830;2023-04-03T04:06:03;7.10;;;2.40;;
44832;SDS011;30569;51.252;9.830;2023-04-03T04:08:29;7.27;;;2.60;;
44832;SDS011;30569;51.252;9.830;2023-04-03T04:10:55;9.20;;;2.57;;
44832;SDS011;30569;51.252;9.830;2023-04-03T04:13:21;6.60;;;2.37;;
44832;SDS011;30569;51.252;9.830;2023-04-03T04:15:46;12.43;;;3.27;;
44832;SDS011;30569;51.252;9.830;2023-04-03T04:18:12;7.03;;;2.80;;
44832;SDS011;30569;51.252;9.830;2023-04-03T04:20:37;7.20;;;2.50;;
44832;SDS011;30569;51.252;9.830;2023-04-03T04:23:03;6.83;;;2.43;;
44832;SDS011;30569;51.252;9.830;2023-04-03T04:25:28;7.40;;;2.30;;
44832;SDS011;30569;51.252;9.830;2023-04-03T04:27:54;5.00;;;2.40;;
44832;SDS011;30569;51.252;9.830;2023-04-03T04:30:19;8.17;;;2.73;;
44832;SDS011;30569;51.252;9.830;2023-04-03T04:32:45;7.30;;;2.40;;
44832;SDS011;30569;51.252;9.830;2023-04-03T04:35:10;7.53;;;3.17;;
44832;SDS011;30569;51.252;9.830;2023-04-03T04:37:36;5.67;;;2.63;;
44832;SDS011;30569;51.252;9.830;2023-04-03T04:40:02;7.93;;;3.57;;
44832;SDS011;30569;51.252;9.830;2023-04-03T04:42:28;10.03;;;2.93;;
44832;SDS011;30569;51.252;9.830;2023-04-03T04:44:53;8.83;;;2.90;;
44832;SDS011;30569;51.252;9.830;2023-04-03T04:47:19;9.80;;;2.83;;
44832;SDS011;30569;51.252;9.830;2023-04-03T04:49:45;6.80;;;3.20;;
44832;SDS011;30569;51.252;9.830;2023-04-03T04:52:12;8.23;;;2.70;;
44832;SDS011;30569;51.252;9.830;2023-04-03T04:54:37;6.57;;;2.83;;
44832;SDS011;30569;51.252;9.830;2023-04-03T04:57:03;7.60;;;2.90;;
44832;SDS011;30569;51.252;9.830;2023-04-03T04:59:29;6.10;;;2.63;;
44832;SDS011;30569;51.252;9.830;2023-04-03T05:01:54;5.53;;;2.60;;
44832;SDS011;30569;51.252;9.830;2023-04-03T05:04:20;7.90;;;2.67;;
44832;SDS011;30569;51.252;9.830;2023-04-03T05:06:46;9.90;;;2.70;;
44832;SDS011;30569;51.252;9.830;2023-04-03T05:09:11;8.40;;;2.70;;
44832;SDS011;30569;51.252;9.830;2023-04-03T05:11:37;11.53;;;2.80;;
44832;SDS011;30569;51.252;9.830;2023-04-03T05:14:03;7.93;;;3.37;;
44832;SDS011;30569;51.252;9.830;2023-04-03T05:16:31;7.77;;;2.93;;
44832;SDS011;30569;51.252;9.830;2023-04-03T05:18:57;6.07;;;2.50;;
44832;SDS011;30569;51.252;9.830;2023-04-03T05:21:23;7.67;;;2.60;;
44832;SDS011;30569;51.252;9.830;2023-04-03T05:23:50;8.10;;;2.73;;
44832;SDS011;30569;51.252;9.830;2023-04-03T05:26:16;7.63;;;2.83;;
44832;SDS011;30569;51.252;9.830;2023-04-03T05:28:42;8.53;;;2.80;;
44832;SDS011;30569;51.252;9.830;2023-04-03T05:31:07;7.33;;;3.00;;
44832;SDS011;30569;51.252;9.830;2023-04-03T05:33:33;8.97;;;2.63;;
44832;SDS011;30569;51.252;9.830;2023-04-03T05:36:02;7.67;;;2.90;;
44832;SDS011;30569;51.252;9.830;2023-04-03T05:38:31;7.77;;;3.00;;
44832;SDS011;30569;51.252;9.830;2023-04-03T05:40:57;6.50;;;2.77;;
44832;SDS011;30569;51.252;9.830;2023-04-03T05:43:22;10.27;;;4.10;;
44832;SDS011;30569;51.252;9.830;2023-04-03T05:45:48;12.80;;;3.30;;
44832;SDS011;30569;51.252;9.830;2023-04-03T05:48:14;7.27;;;3.20;;
44832;SDS011;30569;51.252;9.830;2023-04-03T05:50:40;8.27;;;3.03;;
44832;SDS011;30569;51.252;9.830;2023-04-03T05:53:07;17.60;;;7.40;;
44832;SDS011;30569;51.252;9.830;2023-04-03T05:55:40;9.95;;;3.75;;
44832;SDS011;30569;51.252;9.830;2023-04-03T05:58:06;14.43;;;6.30;;
44832;SDS011;30569;51.252;9.830;2023-04-03T06:00:31;20.87;;;8.47;;
44832;SDS011;30569;51.252;9.830;2023-04-03T06:02:57;15.00;;;6.77;;
44832;SDS011;30569;51.252;9.830;2023-04-03T06:05:22;11.57;;;5.77;;
44832;SDS011;30569;51.252;9.830;2023-04-03T06:07:48;7.07;;;3.70;;
44832;SDS011;30569;51.252;9.830;2023-04-03T06:10:14;9.40;;;5.57;;
44832;SDS011;30569;51.252;9.830;2023-04-03T06:12:40;9.63;;;6.03;;
44832;SDS011;30569;51.252;9.830;2023-04-03T06:15:07;10.37;;;3.30;;
44832;SDS011;30569;51.252;9.830;2023-04-03T06:17:34;10.30;;;3.90;;
44832;SDS011;30569;51.252;9.830;2023-04-03T06:20:01;7.47;;;3.03;;
44832;SDS011;30569;51.252;9.830;2023-04-03T06:22:28;5.80;;;2.90;;
44832;SDS011;30569;51.252;9.830;2023-04-03T06:24:55;8.67;;;2.57;;
44832;SDS011;30569;51.252;9.830;2023-04-03T06:27:21;15.67;;;2.80;;
44832;SDS011;30569;51.252;9.830;2023-04-03T06:29:47;7.37;;;3.00;;
44832;SDS011;30569;51.252;9.830;2023-04-03T06:32:13;9.70;;;3.90;;
44832;SDS011;30569;51.252;9.830;2023-04-03T06:34:39;6.87;;;3.50;;
44832;SDS011;30569;51.252;9.830;2023-04-03T06:37:06;13.90;;;3.07;;
44832;SDS011;30569;51.252;9.830;2023-04-03T06:39:32;7.83;;;3.33;;
44832;SDS011;30569;51.252;9.830;2023-04-03T06:41:58;10.80;;;3.10;;
44832;SDS011;30569;51.252;9.830;2023-04-03T06:44:24;7.87;;;3.07;;
44832;SDS011;30569;51.252;9.830;2023-04-03T06:46:50;8.27;;;3.00;;
44832;SDS011;30569;51.252;9.830;2023-04-03T06:49:16;13.73;;;2.87;;
44832;SDS011;30569;51.252;9.830;2023-04-03T06:51:43;4.97;;;2.77;;
44832;SDS011;30569;51.252;9.830;2023-04-03T06:54:08;9.03;;;3.17;;
44832;SDS011;30569;51.252;9.830;2023-04-03T06:56:34;8.87;;;3.17;;
44832;SDS011;30569;51.252;9.830;2023-04-03T06:59:00;6.40;;;2.83;;
44832;SDS011;30569;51.252;9.830;2023-04-03T07:01:26;9.93;;;3.40;;
44832;SDS011;30569;51.252;9.830;2023-04-03T07:03:54;5.87;;;2.60;;
44832;SDS011;30569;51.252;9.830;2023-04-03T07:06:20;7.13;;;3.10;;
44832;SDS011;30569;51.252;9.830;2023-04-03T07:08:46;6.97;;;2.90;;
44832;SDS011;30569;51.252;9.830;2023-04-03T07:11:15;7.23;;;2.90;;
44832;SDS011;30569;51.252;9.830;2023-04-03T07:13:41;7.33;;;3.10;;
44832;SDS011;30569;51.252;9.830;2023-04-03T07:16:08;7.70;;;2.73;;
44832;SDS011;30569;51.252;9.830;2023-04-03T07:18:34;10.63;;;3.80;;
44832;SDS011;30569;51.252;9.830;2023-04-03T07:21:00;9.17;;;2.73;;
44832;SDS011;30569;51.252;9.830;2023-04-03T07:23:25;6.87;;;3.23;;
44832;SDS011;30569;51.252;9.830;2023-04-03T07:25:51;9.60;;;2.77;;
44832;SDS011;30569;51.252;9.830;2023-04-03T07:28:17;5.43;;;2.50;;
44832;SDS011;30569;51.252;9.830;2023-04-03T07:30:46;7.00;;;2.60;;
44832;SDS011;30569;51.252;9.830;2023-04-03T07:33:13;10.47;;;3.30;;
44832;SDS011;30569;51.252;9.830;2023-04-03T07:35:42;7.00;;;2.80;;
44832;SDS011;30569;51.252;9.830;2023-04-03T07:38:08;6.47;;;2.50;;
44832;SDS011;30569;51.252;9.830;2023-04-03T07:40:34;7.23;;;2.23;;
44832;SDS011;30569;51.252;9.830;2023-04-03T07:43:00;6.23;;;2.17;;
44832;SDS011;30569;51.252;9.830;2023-04-03T07:45:27;9.13;;;3.20;;
44832;SDS011;30569;51.252;9.830;2023-04-03T07:47:53;8.53;;;2.40;;
44832;SDS011;30569;51.252;9.830;2023-04-03T07:50:18;5.40;;;2.30;;
44832;SDS011;30569;51.252;9.830;2023-04-03T07:52:44;4.53;;;2.00;;
44832;SDS011;30569;51.252;9.830;2023-04-03T07:55:10;6.00;;;2.10;;
44832;SDS011;30569;51.252;9.830;2023-04-03T07:57:36;8.53;;;2.17;;
44832;SDS011;30569;51.252;9.830;2023-04-03T08:00:03;6.13;;;1.80;;
44832;SDS011;30569;51.252;9.830;2023-04-03T08:02:30;5.57;;;2.20;;
44832;SDS011;30569;51.252;9.830;2023-04-03T08:04:59;4.37;;;1.70;;
44832;SDS011;30569;51.252;9.830;2023-04-03T08:07:24;4.17;;;1.80;;
44832;SDS011;30569;51.252;9.830;2023-04-03T08:09:50;6.30;;;1.83;;
44832;SDS011;30569;51.252;9.830;2023-04-03T08:12:16;4.20;;;1.80;;
44832;SDS011;30569;51.252;9.830;2023-04-03T08:14:42;6.53;;;1.80;;
44832;SDS011;30569;51.252;9.830;2023-04-03T08:17:08;5.00;;;1.70;;
44832;SDS011;30569;51.252;9.830;2023-04-03T08:19:36;4.23;;;1.93;;
44832;SDS011;30569;51.252;9.830;2023-04-03T08:22:03;4.60;;;1.83;;
44832;SDS011;30569;51.252;9.830;2023-04-03T08:24:30;4.18;;;1.70;;
44832;SDS011;30569;51.252;9.830;2023-04-03T08:26:56;5.35;;;1.50;;
44832;SDS011;30569;51.252;9.830;2023-04-03T08:29:22;6.05;;;1.60;;
44832;SDS011;30569;51.252;9.830;2023-04-03T08:31:48;4.72;;;1.70;;
44832;SDS011;30569;51.252;9.830;2023-04-03T08:34:15;4.65;;;1.55;;
44832;SDS011;30569;51.252;9.830;2023-04-03T08:36:41;6.93;;;1.40;;
44832;SDS011;30569;51.252;9.830;2023-04-03T08:39:07;7.35;;;1.88;;
44832;SDS011;30569;51.252;9.830;2023-04-03T08:41:33;5.03;;;1.55;;
44832;SDS011;30569;51.252;9.830;2023-04-03T08:44:13;5.15;;;1.80;;
44832;SDS011;30569;51.252;9.830;2023-04-03T08:50:02;4.63;;;1.52;;
44832;SDS011;30569;51.252;9.830;2023-04-03T08:55:29;5.10;;;1.75;;
44832;SDS011;30569;51.252;9.830;2023-04-03T09:01:14;5.05;;;1.65;;
44832;SDS011;30569;51.252;9.830;2023-04-03T09:03:39;5.85;;;2.00;;
44832;SDS011;30569;51.252;9.830;2023-04-03T09:17:00;6.43;;;1.70;;
44832;SDS011;30569;51.252;9.830;2023-04-03T09:19:54;4.60;;;1.40;;
44832;SDS011;30569;51.252;9.830;2023-04-03T09:22:28;5.03;;;1.48;;
44832;SDS011;30569;51.252;9.830;2023-04-03T09:25:01;5.47;;;1.58;;
44832;SDS011;30569;51.252;9.830;2023-04-03T09:27:33;3.13;;;1.30;;
44832;SDS011;30569;51.252;9.830;2023-04-03T09:29:59;3.38;;;1.60;;
44832;SDS011;30569;51.252;9.830;2023-04-03T09:32:26;5.50;;;1.55;;
44832;SDS011;30569;51.252;9.830;2023-04-03T09:34:56;5.25;;;1.40;;
44832;SDS011;30569;51.252;9.830;2023-04-03T09:40:04;4.85;;;1.30;;
44832;SDS011;30569;51.252;9.830;2023-04-03T09:42:31;4.55;;;1.20;;
44832;SDS011;30569;51.252;9.830;2023-04-03T09:47:27;3.88;;;1.27;;
44832;SDS011;30569;51.252;9.830;2023-04-03T09:52:39;4.45;;;1.25;;
44832;SDS011;30569;51.252;9.830;2023-04-03T09:55:13;5.40;;;1.40;;
44832;SDS011;30569;51.252;9.830;2023-04-03T09:58:00;6.40;;;1.45;;
44832;SDS011;30569;51.252;9.830;2023-04-03T10:00:33;5.40;;;1.30;;
44832;SDS011;30569;51.252;9.830;2023-04-03T10:03:01;3.90;;;1.33;;
44832;SDS011;30569;51.252;9.830;2023-04-03T10:05:34;4.72;;;1.50;;
44832;SDS011;30569;51.252;9.830;2023-04-03T10:08:19;4.22;;;1.33;;
44832;SDS011;30569;51.252;9.830;2023-04-03T10:14:01;7.00;;;1.63;;
44832;SDS011;30569;51.252;9.830;2023-04-03T10:16:34;4.22;;;1.33;;
44832;SDS011;30569;51.252;9.830;2023-04-03T10:38:23;5.88;;;1.50;;
44832;SDS011;30569;51.252;9.830;2023-04-03T10:49:44;4.78;;;1.45;;
44832;SDS011;30569;51.252;9.830;2023-04-03T10:54:58;3.90;;;1.50;;
44832;SDS011;30569;51.252;9.830;2023-04-03T10:57:32;6.45;;;1.98;;
44832;SDS011;30569;51.252;9.830;2023-04-03T11:00:04;5.40;;;1.70;;
44832;SDS011;30569;51.252;9.830;2023-04-03T11:02:56;6.38;;;1.50;;
44832;SDS011;30569;51.252;9.830;2023-04-03T11:05:28;7.07;;;1.58;;
44832;SDS011;30569;51.252;9.830;2023-04-03T11:08:09;4.30;;;1.85;;
44832;SDS011;30569;51.252;9.830;2023-04-03T11:10:49;5.75;;;1.70;;
44832;SDS011;30569;51.252;9.830;2023-04-03T11:13:21;6.47;;;2.30;;
44832;SDS011;30569;51.252;9.830;2023-04-03T11:15:53;3.72;;;1.50;;
44832;SDS011;30569;51.252;9.830;2023-04-03T11:18:22;6.17;;;1.83;;
44832;SDS011;30569;51.252;9.830;2023-04-03T11:21:00;5.03;;;1.40;;
44832;SDS011;30569;51.252;9.830;2023-04-03T11:23:31;8.77;;;1.70;;
44832;SDS011;30569;51.252;9.830;2023-04-03T11:26:18;5.17;;;1.50;;
44832;SDS011;30569;51.252;9.830;2023-04-03T11:28:51;6.20;;;2.00;;
44832;SDS011;30569;51.252;9.830;2023-04-03T11:36:59;5.97;;;2.60;;
44832;SDS011;30569;51.252;9.830;2023-04-03T11:39:33;5.70;;;1.90;;
44832;SDS011;30569;51.252;9.830;2023-04-03T11:45:17;7.23;;;1.70;;
44832;SDS011;30569;51.252;9.830;2023-04-03T11:47:48;5.00;;;1.90;;
44832;SDS011;30569;51.252;9.830;2023-04-03T12:08:30;3.60;;;1.73;;
44832;SDS011;30569;51.252;9.830;2023-04-03T12:13:34;4.88;;;1.52;;
44832;SDS011;30569;51.252;9.830;2023-04-03T12:16:00;5.87;;;1.40;;
44832;SDS011;30569;51.252;9.830;2023-04-03T12:18:48;7.78;;;1.95;;
44832;SDS011;30569;51.252;9.830;2023-04-03T12:26:38;6.50;;;1.80;;
44832;SDS011;30569;51.252;9.830;2023-04-03T12:29:33;5.53;;;1.40;;
44832;SDS011;30569;51.252;9.830;2023-04-03T12:41:55;4.53;;;1.60;;
44832;SDS011;30569;51.252;9.830;2023-04-03T12:44:46;5.67;;;1.70;;
44832;SDS011;30569;51.252;9.830;2023-04-03T12:47:25;5.67;;;1.80;;
44832;SDS011;30569;51.252;9.830;2023-04-03T12:49:53;6.67;;;2.03;;
44832;SDS011;30569;51.252;9.830;2023-04-03T12:52:38;4.03;;;1.60;;
44832;SDS011;30569;51.252;9.830;2023-04-03T12:55:08;4.60;;;1.80;;
44832;SDS011;30569;51.252;9.830;2023-04-03T12:57:40;7.47;;;2.08;;
44832;SDS011;30569;51.252;9.830;2023-04-03T13:00:19;5.23;;;1.80;;
44832;SDS011;30569;51.252;9.830;2023-04-03T13:02:54;4.80;;;1.93;;
44832;SDS011;30569;51.252;9.830;2023-04-03T13:05:21;5.63;;;2.00;;
44832;SDS011;30569;51.252;9.830;2023-04-03T13:07:56;5.70;;;1.70;;
44832;SDS011;30569;51.252;9.830;2023-04-03T13:10:25;4.47;;;1.80;;
44832;SDS011;30569;51.252;9.830;2023-04-03T13:12:52;6.57;;;1.90;;
44832;SDS011;30569;51.252;9.830;2023-04-03T13:15:28;5.83;;;1.67;;
44832;SDS011;30569;51.252;9.830;2023-04-03T13:18:20;6.03;;;2.15;;
44832;SDS011;30569;51.252;9.830;2023-04-03T13:20:58;5.37;;;1.70;;
44832;SDS011;30569;51.252;9.830;2023-04-03T13:25:57;4.43;;;1.93;;
44832;SDS011;30569;51.252;9.830;2023-04-03T13:28:27;6.47;;;2.87;;
44832;SDS011;30569;51.252;9.830;2023-04-03T13:30:54;6.40;;;1.90;;
44832;SDS011;30569;51.252;9.830;2023-04-03T13:33:21;5.75;;;2.75;;
44832;SDS011;30569;51.252;9.830;2023-04-03T13:36:00;4.85;;;1.77;;
44832;SDS011;30569;51.252;9.830;2023-04-03T13:38:41;6.65;;;2.20;;
44832;SDS011;30569;51.252;9.830;2023-04-03T13:41:26;4.73;;;2.00;;
44832;SDS011;30569;51.252;9.830;2023-04-03T13:43:56;5.03;;;1.67;;
44832;SDS011;30569;51.252;9.830;2023-04-03T13:46:25;6.87;;;2.40;;
44832;SDS011;30569;51.252;9.830;2023-04-03T13:48:53;5.93;;;1.83;;
44832;SDS011;30569;51.252;9.830;2023-04-03T13:51:24;5.50;;;1.90;;
44832;SDS011;30569;51.252;9.830;2023-04-03T13:53:57;5.83;;;2.00;;
44832;SDS011;30569;51.252;9.830;2023-04-03T13:56:33;5.47;;;1.60;;
44832;SDS011;30569;51.252;9.830;2023-04-03T14:04:12;5.90;;;1.67;;
44832;SDS011;30569;51.252;9.830;2023-04-03T14:06:40;5.88;;;2.47;;
44832;SDS011;30569;51.252;9.830;2023-04-03T14:09:06;6.40;;;1.77;;
44832;SDS011;30569;51.252;9.830;2023-04-03T14:11:32;5.60;;;1.75;;
44832;SDS011;30569;51.252;9.830;2023-04-03T14:14:00;4.27;;;1.80;;
44832;SDS011;30569;51.252;9.830;2023-04-03T14:16:31;7.77;;;2.03;;
44832;SDS011;30569;51.252;9.830;2023-04-03T14:19:02;5.80;;;1.87;;
44832;SDS011;30569;51.252;9.830;2023-04-03T14:21:27;5.80;;;1.73;;
44832;SDS011;30569;51.252;9.830;2023-04-03T14:23:53;8.17;;;1.70;;
44832;SDS011;30569;51.252;9.830;2023-04-03T14:26:21;6.67;;;2.17;;
44832;SDS011;30569;51.252;9.830;2023-04-03T14:28:49;4.95;;;1.90;;
44832;SDS011;30569;51.252;9.830;2023-04-03T14:31:17;4.50;;;1.70;;
44832;SDS011;30569;51.252;9.830;2023-04-03T14:33:43;6.63;;;2.00;;
44832;SDS011;30569;51.252;9.830;2023-04-03T14:36:13;4.65;;;1.60;;
44832;SDS011;30569;51.252;9.830;2023-04-03T14:38:40;5.78;;;1.75;;
44832;SDS011;30569;51.252;9.830;2023-04-03T14:41:06;4.87;;;2.50;;
44832;SDS011;30569;51.252;9.830;2023-04-03T14:43:32;4.77;;;2.10;;
44832;SDS011;30569;51.252;9.830;2023-04-03T14:45:58;4.77;;;1.80;;
44832;SDS011;30569;51.252;9.830;2023-04-03T14:48:24;5.13;;;1.97;;
44832;SDS011;30569;51.252;9.830;2023-04-03T14:50:52;4.83;;;1.83;;
44832;SDS011;30569;51.252;9.830;2023-04-03T14:53:19;4.65;;;2.10;;
44832;SDS011;30569;51.252;9.830;2023-04-03T14:55:50;5.65;;;1.90;;
44832;SDS011;30569;51.252;9.830;2023-04-03T14:58:16;5.40;;;1.70;;
44832;SDS011;30569;51.252;9.830;2023-04-03T15:00:44;4.23;;;1.70;;
44832;SDS011;30569;51.252;9.830;2023-04-03T15:03:16;5.53;;;2.20;;
44832;SDS011;30569;51.252;9.830;2023-04-03T15:05:46;4.37;;;1.73;;
44832;SDS011;30569;51.252;9.830;2023-04-03T15:08:17;4.70;;;1.70;;
44832;SDS011;30569;51.252;9.830;2023-04-03T15:10:49;5.53;;;1.70;;
44832;SDS011;30569;51.252;9.830;2023-04-03T15:13:15;6.17;;;1.73;;
44832;SDS011;30569;51.252;9.830;2023-04-03T15:15:41;4.93;;;1.63;;
44832;SDS011;30569;51.252;9.830;2023-04-03T15:18:10;6.20;;;1.67;;
44832;SDS011;30569;51.252;9.830;2023-04-03T15:20:42;4.83;;;1.67;;
44832;SDS011;30569;51.252;9.830;2023-04-03T15:23:08;4.93;;;1.97;;
44832;SDS011;30569;51.252;9.830;2023-04-03T15:25:36;4.87;;;2.27;;
44832;SDS011;30569;51.252;9.830;2023-04-03T15:28:02;8.03;;;2.07;;
44832;SDS011;30569;51.252;9.830;2023-04-03T15:30:27;4.53;;;1.67;;
44832;SDS011;30569;51.252;9.830;2023-04-03T15:32:53;7.30;;;2.07;;
44832;SDS011;30569;51.252;9.830;2023-04-03T15:35:18;6.57;;;1.67;;
44832;SDS011;30569;51.252;9.830;2023-04-03T15:37:44;4.73;;;1.80;;
44832;SDS011;30569;51.252;9.830;2023-04-03T15:40:10;8.80;;;2.10;;
44832;SDS011;30569;51.252;9.830;2023-04-03T15:42:36;5.03;;;1.80;;
44832;SDS011;30569;51.252;9.830;2023-04-03T15:45:02;4.63;;;1.80;;
44832;SDS011;30569;51.252;9.830;2023-04-03T15:47:27;5.23;;;1.77;;
44832;SDS011;30569;51.252;9.830;2023-04-03T15:49:54;7.90;;;1.83;;
44832;SDS011;30569;51.252;9.830;2023-04-03T15:52:20;4.07;;;1.60;;
44832;SDS011;30569;51.252;9.830;2023-04-03T15:54:46;7.07;;;1.90;;
44832;SDS011;30569;51.252;9.830;2023-04-03T15:57:11;6.80;;;1.90;;
44832;SDS011;30569;51.252;9.830;2023-04-03T15:59:37;5.63;;;2.03;;
44832;SDS011;30569;51.252;9.830;2023-04-03T16:02:03;4.60;;;1.60;;
44832;SDS011;30569;51.252;9.830;2023-04-03T16:04:32;5.53;;;1.70;;
44832;SDS011;30569;51.252;9.830;2023-04-03T16:07:00;5.40;;;2.03;;
44832;SDS011;30569;51.252;9.830;2023-04-03T16:09:27;3.97;;;1.60;;
44832;SDS011;30569;51.252;9.830;2023-04-03T16:11:53;5.53;;;2.00;;
44832;SDS011;30569;51.252;9.830;2023-04-03T16:14:19;5.30;;;1.80;;
44832;SDS011;30569;51.252;9.830;2023-04-03T16:16:44;4.60;;;1.70;;
44832;SDS011;30569;51.252;9.830;2023-04-03T16:19:10;4.43;;;1.80;;
44832;SDS011;30569;51.252;9.830;2023-04-03T16:21:36;6.13;;;1.87;;
44832;SDS011;30569;51.252;9.830;2023-04-03T16:24:02;4.77;;;1.90;;
44832;SDS011;30569;51.252;9.830;2023-04-03T16:26:28;4.83;;;1.67;;
44832;SDS011;30569;51.252;9.830;2023-04-03T16:28:54;4.83;;;1.83;;
44832;SDS011;30569;51.252;9.830;2023-04-03T16:31:20;4.67;;;1.70;;
44832;SDS011;30569;51.252;9.830;2023-04-03T16:33:46;5.53;;;1.67;;
44832;SDS011;30569;51.252;9.830;2023-04-03T16:36:12;4.70;;;1.80;;
44832;SDS011;30569;51.252;9.830;2023-04-03T16:38:37;4.67;;;1.90;;
44832;SDS011;30569;51.252;9.830;2023-04-03T16:41:03;5.37;;;1.63;;
44832;SDS011;30569;51.252;9.830;2023-04-03T16:43:30;5.30;;;2.10;;
44832;SDS011;30569;51.252;9.830;2023-04-03T16:46:00;5.20;;;2.00;;
44832;SDS011;30569;51.252;9.830;2023-04-03T16:48:27;5.73;;;2.00;;